sensor_id;sensor_type;location;lat;lon;timestamp;P1;durP1;ratioP1;P2;durP2;ratioP2
69551;SDS011;58993;45.320;11.864;2022-08-19T00:01:22;8.30;;;1.30;;
69551;SDS011;58993;45.320;11.864;2022-08-19T00:03:48;3.40;;;1.00;;
69551;SDS011;58993;45.320;11.864;2022-08-19T00:06:14;8.00;;;1.40;;
69551;SDS011;58993;45.320;11.864;2022-08-19T00:08:40;4.20;;;1.20;;
69551;SDS011;58993;45.320;11.864;2022-08-19T00:11:06;5.10;;;1.10;;
69551;SDS011;58993;45.320;11.864;2022-08-19T00:13:32;5.40;;;1.30;;
69551;SDS011;58993;45.320;11.864;2022-08-19T00:15:59;5.70;;;1.40;;
69551;SDS011;58993;45.320;11.864;2022-08-19T00:18:25;5.80;;;1.60;;
69551;SDS011;58993;45.320;11.864;2022-08-19T00:20:51;8.00;;;1.50;;
69551;SDS011;58993;45.320;11.864;2022-08-19T00:23:17;6.00;;;1.50;;
69551;SDS011;58993;45.320;11.864;2022-08-19T00:25:44;7.10;;;1.50;;
69551;SDS011;58993;45.320;11.864;2022-08-19T00:28:09;4.70;;;1.20;;
69551;SDS011;58993;45.320;11.864;2022-08-19T00:30:35;6.30;;;1.90;;
69551;SDS011;58993;45.320;11.864;2022-08-19T00:33:01;4.30;;;1.10;;
69551;SDS011;58993;45.320;11.864;2022-08-19T00:35:27;5.40;;;1.30;;
69551;SDS011;58993;45.320;11.864;2022-08-19T00:37:53;5.70;;;1.30;;
69551;SDS011;58993;45.320;11.864;2022-08-19T00:40:20;5.50;;;1.20;;
69551;SDS011;58993;45.320;11.864;2022-08-19T00:42:46;4.40;;;1.20;;
69551;SDS011;58993;45.320;11.864;2022-08-19T00:45:14;7.40;;;1.60;;
69551;SDS011;58993;45.320;11.864;2022-08-19T00:47:42;6.10;;;1.30;;
69551;SDS011;58993;45.320;11.864;2022-08-19T00:50:10;8.20;;;1.50;;
69551;SDS011;58993;45.320;11.864;2022-08-19T00:52:42;5.60;;;1.30;;
69551;SDS011;58993;45.320;11.864;2022-08-19T00:55:10;3.70;;;1.60;;
69551;SDS011;58993;45.320;11.864;2022-08-19T00:57:41;4.60;;;1.50;;
69551;SDS011;58993;45.320;11.864;2022-08-19T01:00:12;5.70;;;1.70;;
69551;SDS011;58993;45.320;11.864;2022-08-19T01:02:40;7.40;;;1.60;;
69551;SDS011;58993;45.320;11.864;2022-08-19T01:05:11;10.00;;;1.50;;
69551;SDS011;58993;45.320;11.864;2022-08-19T01:07:40;3.40;;;1.20;;
69551;SDS011;58993;45.320;11.864;2022-08-19T01:10:07;9.80;;;1.50;;
69551;SDS011;58993;45.320;11.864;2022-08-19T01:12:37;6.80;;;1.40;;
69551;SDS011;58993;45.320;11.864;2022-08-19T01:15:04;6.10;;;1.40;;
69551;SDS011;58993;45.320;11.864;2022-08-19T01:17:32;5.50;;;1.30;;
69551;SDS011;58993;45.320;11.864;2022-08-19T01:19:59;7.60;;;1.60;;
69551;SDS011;58993;45.320;11.864;2022-08-19T01:22:31;5.10;;;1.40;;
69551;SDS011;58993;45.320;11.864;2022-08-19T01:25:05;6.20;;;1.30;;
69551;SDS011;58993;45.320;11.864;2022-08-19T01:27:42;6.90;;;1.70;;
69551;SDS011;58993;45.320;11.864;2022-08-19T01:30:11;9.80;;;1.50;;
69551;SDS011;58993;45.320;11.864;2022-08-19T01:32:39;5.60;;;1.60;;
69551;SDS011;58993;45.320;11.864;2022-08-19T01:35:05;6.50;;;1.50;;
69551;SDS011;58993;45.320;11.864;2022-08-19T01:37:40;6.50;;;1.50;;
69551;SDS011;58993;45.320;11.864;2022-08-19T01:40:07;4.40;;;1.20;;
69551;SDS011;58993;45.320;11.864;2022-08-19T01:42:33;6.70;;;1.80;;
69551;SDS011;58993;45.320;11.864;2022-08-19T01:45:00;6.40;;;1.40;;
69551;SDS011;58993;45.320;11.864;2022-08-19T01:47:26;6.10;;;1.30;;
69551;SDS011;58993;45.320;11.864;2022-08-19T01:49:51;6.10;;;1.60;;
69551;SDS011;58993;45.320;11.864;2022-08-19T01:52:17;7.20;;;1.60;;
69551;SDS011;58993;45.320;11.864;2022-08-19T01:54:42;6.40;;;1.70;;
69551;SDS011;58993;45.320;11.864;2022-08-19T01:57:08;4.50;;;1.60;;
69551;SDS011;58993;45.320;11.864;2022-08-19T01:59:37;3.80;;;1.50;;
69551;SDS011;58993;45.320;11.864;2022-08-19T02:02:03;5.50;;;1.70;;
69551;SDS011;58993;45.320;11.864;2022-08-19T02:04:33;8.60;;;1.60;;
69551;SDS011;58993;45.320;11.864;2022-08-19T02:06:59;6.70;;;1.90;;
69551;SDS011;58993;45.320;11.864;2022-08-19T02:09:25;4.10;;;1.50;;
69551;SDS011;58993;45.320;11.864;2022-08-19T02:11:50;5.00;;;1.50;;
69551;SDS011;58993;45.320;11.864;2022-08-19T02:14:15;4.70;;;1.20;;
69551;SDS011;58993;45.320;11.864;2022-08-19T02:16:41;5.00;;;1.50;;
69551;SDS011;58993;45.320;11.864;2022-08-19T02:19:06;6.30;;;1.60;;
69551;SDS011;58993;45.320;11.864;2022-08-19T02:21:32;5.00;;;1.90;;
69551;SDS011;58993;45.320;11.864;2022-08-19T02:23:59;9.40;;;1.70;;
69551;SDS011;58993;45.320;11.864;2022-08-19T02:26:25;9.80;;;1.60;;
69551;SDS011;58993;45.320;11.864;2022-08-19T02:28:51;5.90;;;1.30;;
69551;SDS011;58993;45.320;11.864;2022-08-19T02:31:19;5.20;;;1.20;;
69551;SDS011;58993;45.320;11.864;2022-08-19T02:33:47;6.40;;;1.30;;
69551;SDS011;58993;45.320;11.864;2022-08-19T02:36:13;6.30;;;1.30;;
69551;SDS011;58993;45.320;11.864;2022-08-19T02:38:42;6.30;;;1.30;;
69551;SDS011;58993;45.320;11.864;2022-08-19T02:41:16;6.70;;;1.50;;
69551;SDS011;58993;45.320;11.864;2022-08-19T02:43:44;9.40;;;1.40;;
69551;SDS011;58993;45.320;11.864;2022-08-19T02:46:24;6.30;;;1.00;;
69551;SDS011;58993;45.320;11.864;2022-08-19T02:48:52;6.90;;;1.50;;
69551;SDS011;58993;45.320;11.864;2022-08-19T02:51:23;5.20;;;1.20;;
69551;SDS011;58993;45.320;11.864;2022-08-19T02:53:51;5.10;;;1.20;;
69551;SDS011;58993;45.320;11.864;2022-08-19T02:56:17;3.20;;;1.00;;
69551;SDS011;58993;45.320;11.864;2022-08-19T02:58:43;3.80;;;1.10;;
69551;SDS011;58993;45.320;11.864;2022-08-19T03:01:10;3.10;;;1.30;;
69551;SDS011;58993;45.320;11.864;2022-08-19T03:03:36;6.10;;;1.20;;
69551;SDS011;58993;45.320;11.864;2022-08-19T03:06:03;5.20;;;1.20;;
69551;SDS011;58993;45.320;11.864;2022-08-19T03:08:31;5.70;;;1.10;;
69551;SDS011;58993;45.320;11.864;2022-08-19T03:10:57;6.70;;;1.20;;
69551;SDS011;58993;45.320;11.864;2022-08-19T03:13:22;7.00;;;1.00;;
69551;SDS011;58993;45.320;11.864;2022-08-19T03:15:49;4.40;;;1.30;;
69551;SDS011;58993;45.320;11.864;2022-08-19T03:18:14;8.00;;;1.50;;
69551;SDS011;58993;45.320;11.864;2022-08-19T03:20:44;4.00;;;1.20;;
69551;SDS011;58993;45.320;11.864;2022-08-19T03:23:15;5.10;;;1.10;;
69551;SDS011;58993;45.320;11.864;2022-08-19T03:25:42;5.10;;;1.10;;
69551;SDS011;58993;45.320;11.864;2022-08-19T03:28:11;6.10;;;1.10;;
69551;SDS011;58993;45.320;11.864;2022-08-19T03:30:39;6.60;;;1.10;;
69551;SDS011;58993;45.320;11.864;2022-08-19T03:33:08;5.80;;;1.40;;
69551;SDS011;58993;45.320;11.864;2022-08-19T03:35:34;4.50;;;1.30;;
69551;SDS011;58993;45.320;11.864;2022-08-19T03:38:02;4.40;;;1.60;;
69551;SDS011;58993;45.320;11.864;2022-08-19T03:40:28;6.00;;;1.40;;
69551;SDS011;58993;45.320;11.864;2022-08-19T03:42:55;4.90;;;1.40;;
69551;SDS011;58993;45.320;11.864;2022-08-19T03:45:22;7.30;;;1.60;;
69551;SDS011;58993;45.320;11.864;2022-08-19T03:47:48;9.30;;;2.30;;
69551;SDS011;58993;45.320;11.864;2022-08-19T03:50:14;6.90;;;1.70;;
69551;SDS011;58993;45.320;11.864;2022-08-19T03:52:40;7.40;;;1.80;;
69551;SDS011;58993;45.320;11.864;2022-08-19T03:55:06;4.60;;;1.40;;
69551;SDS011;58993;45.320;11.864;2022-08-19T03:57:32;7.20;;;2.00;;
69551;SDS011;58993;45.320;11.864;2022-08-19T03:59:59;6.70;;;1.60;;
69551;SDS011;58993;45.320;11.864;2022-08-19T04:02:26;4.90;;;1.30;;
69551;SDS011;58993;45.320;11.864;2022-08-19T04:04:52;7.60;;;1.40;;
69551;SDS011;58993;45.320;11.864;2022-08-19T04:07:20;6.30;;;1.60;;
69551;SDS011;58993;45.320;11.864;2022-08-19T04:09:46;5.00;;;1.20;;
69551;SDS011;58993;45.320;11.864;2022-08-19T04:12:12;4.80;;;1.30;;
69551;SDS011;58993;45.320;11.864;2022-08-19T04:14:38;5.60;;;1.20;;
69551;SDS011;58993;45.320;11.864;2022-08-19T04:17:04;6.60;;;1.70;;
69551;SDS011;58993;45.320;11.864;2022-08-19T04:19:30;4.90;;;1.20;;
69551;SDS011;58993;45.320;11.864;2022-08-19T04:21:56;5.10;;;1.40;;
69551;SDS011;58993;45.320;11.864;2022-08-19T04:24:23;5.00;;;1.40;;
69551;SDS011;58993;45.320;11.864;2022-08-19T04:26:49;5.30;;;1.40;;
69551;SDS011;58993;45.320;11.864;2022-08-19T04:29:17;7.10;;;1.70;;
69551;SDS011;58993;45.320;11.864;2022-08-19T04:31:46;6.80;;;1.00;;
69551;SDS011;58993;45.320;11.864;2022-08-19T04:34:14;6.00;;;1.30;;
69551;SDS011;58993;45.320;11.864;2022-08-19T04:36:42;6.10;;;1.30;;
69551;SDS011;58993;45.320;11.864;2022-08-19T04:39:11;6.50;;;1.50;;
69551;SDS011;58993;45.320;11.864;2022-08-19T04:41:39;8.40;;;1.70;;
69551;SDS011;58993;45.320;11.864;2022-08-19T04:44:23;5.60;;;1.40;;
69551;SDS011;58993;45.320;11.864;2022-08-19T04:46:49;8.30;;;1.40;;
69551;SDS011;58993;45.320;11.864;2022-08-19T04:49:16;4.20;;;1.20;;
69551;SDS011;58993;45.320;11.864;2022-08-19T04:51:44;5.80;;;1.40;;
69551;SDS011;58993;45.320;11.864;2022-08-19T04:54:12;7.60;;;1.40;;
69551;SDS011;58993;45.320;11.864;2022-08-19T04:56:38;6.50;;;1.30;;
69551;SDS011;58993;45.320;11.864;2022-08-19T04:59:05;6.20;;;1.30;;
69551;SDS011;58993;45.320;11.864;2022-08-19T05:01:32;2.80;;;0.80;;
69551;SDS011;58993;45.320;11.864;2022-08-19T05:03:59;3.30;;;1.00;;
69551;SDS011;58993;45.320;11.864;2022-08-19T05:06:26;6.10;;;1.10;;
69551;SDS011;58993;45.320;11.864;2022-08-19T05:08:53;6.20;;;0.90;;
69551;SDS011;58993;45.320;11.864;2022-08-19T05:11:22;5.00;;;0.90;;
69551;SDS011;58993;45.320;11.864;2022-08-19T05:13:50;7.00;;;1.20;;
69551;SDS011;58993;45.320;11.864;2022-08-19T05:16:18;5.10;;;1.00;;
69551;SDS011;58993;45.320;11.864;2022-08-19T05:18:45;6.20;;;1.30;;
69551;SDS011;58993;45.320;11.864;2022-08-19T05:21:29;7.00;;;1.10;;
69551;SDS011;58993;45.320;11.864;2022-08-19T05:24:14;3.90;;;1.20;;
69551;SDS011;58993;45.320;11.864;2022-08-19T05:26:43;6.40;;;1.30;;
69551;SDS011;58993;45.320;11.864;2022-08-19T05:29:17;4.70;;;1.20;;
69551;SDS011;58993;45.320;11.864;2022-08-19T05:31:44;6.60;;;1.80;;
69551;SDS011;58993;45.320;11.864;2022-08-19T05:34:12;4.00;;;1.00;;
69551;SDS011;58993;45.320;11.864;2022-08-19T05:36:40;4.40;;;1.20;;
69551;SDS011;58993;45.320;11.864;2022-08-19T05:39:09;3.40;;;0.90;;
69551;SDS011;58993;45.320;11.864;2022-08-19T05:41:40;3.70;;;1.20;;
69551;SDS011;58993;45.320;11.864;2022-08-19T05:44:10;3.30;;;1.10;;
69551;SDS011;58993;45.320;11.864;2022-08-19T05:46:37;4.20;;;1.00;;
69551;SDS011;58993;45.320;11.864;2022-08-19T05:49:05;4.30;;;1.00;;
69551;SDS011;58993;45.320;11.864;2022-08-19T05:51:32;6.30;;;1.30;;
69551;SDS011;58993;45.320;11.864;2022-08-19T05:53:59;4.40;;;1.10;;
69551;SDS011;58993;45.320;11.864;2022-08-19T05:56:26;5.00;;;0.90;;
69551;SDS011;58993;45.320;11.864;2022-08-19T05:58:51;3.00;;;0.70;;
69551;SDS011;58993;45.320;11.864;2022-08-19T06:01:19;3.00;;;0.90;;
69551;SDS011;58993;45.320;11.864;2022-08-19T06:03:45;3.40;;;1.00;;
69551;SDS011;58993;45.320;11.864;2022-08-19T06:06:12;3.20;;;0.70;;
69551;SDS011;58993;45.320;11.864;2022-08-19T06:08:40;4.00;;;1.00;;
69551;SDS011;58993;45.320;11.864;2022-08-19T06:11:11;3.00;;;0.70;;
69551;SDS011;58993;45.320;11.864;2022-08-19T06:13:40;3.10;;;1.00;;
69551;SDS011;58993;45.320;11.864;2022-08-19T06:16:05;2.50;;;0.80;;
69551;SDS011;58993;45.320;11.864;2022-08-19T06:18:31;3.00;;;0.80;;
69551;SDS011;58993;45.320;11.864;2022-08-19T06:20:58;4.10;;;0.70;;
69551;SDS011;58993;45.320;11.864;2022-08-19T06:23:23;1.90;;;0.70;;
69551;SDS011;58993;45.320;11.864;2022-08-19T06:25:48;3.50;;;1.00;;
69551;SDS011;58993;45.320;11.864;2022-08-19T06:28:14;7.50;;;0.80;;
69551;SDS011;58993;45.320;11.864;2022-08-19T06:30:39;6.80;;;1.00;;
69551;SDS011;58993;45.320;11.864;2022-08-19T06:33:05;4.60;;;1.10;;
69551;SDS011;58993;45.320;11.864;2022-08-19T06:35:30;2.90;;;0.90;;
69551;SDS011;58993;45.320;11.864;2022-08-19T06:40:33;6.20;;;0.90;;
69551;SDS011;58993;45.320;11.864;2022-08-19T06:43:00;3.30;;;0.90;;
69551;SDS011;58993;45.320;11.864;2022-08-19T06:45:27;5.30;;;1.20;;
69551;SDS011;58993;45.320;11.864;2022-08-19T06:47:53;3.10;;;0.80;;
69551;SDS011;58993;45.320;11.864;2022-08-19T06:50:24;4.10;;;1.00;;
69551;SDS011;58993;45.320;11.864;2022-08-19T06:52:51;4.20;;;0.80;;
69551;SDS011;58993;45.320;11.864;2022-08-19T06:55:17;3.90;;;0.90;;
69551;SDS011;58993;45.320;11.864;2022-08-19T06:57:42;3.00;;;0.80;;
69551;SDS011;58993;45.320;11.864;2022-08-19T07:00:11;5.80;;;1.20;;
69551;SDS011;58993;45.320;11.864;2022-08-19T07:02:39;3.20;;;1.00;;
69551;SDS011;58993;45.320;11.864;2022-08-19T07:05:06;3.80;;;1.00;;
69551;SDS011;58993;45.320;11.864;2022-08-19T07:07:32;3.10;;;0.90;;
69551;SDS011;58993;45.320;11.864;2022-08-19T07:09:59;4.20;;;1.10;;
69551;SDS011;58993;45.320;11.864;2022-08-19T07:12:30;3.10;;;1.20;;
69551;SDS011;58993;45.320;11.864;2022-08-19T07:15:00;4.00;;;0.90;;
69551;SDS011;58993;45.320;11.864;2022-08-19T07:17:25;3.20;;;0.70;;
69551;SDS011;58993;45.320;11.864;2022-08-19T07:19:51;5.00;;;1.00;;
69551;SDS011;58993;45.320;11.864;2022-08-19T07:22:17;2.50;;;0.80;;
69551;SDS011;58993;45.320;11.864;2022-08-19T07:24:45;4.70;;;1.00;;
69551;SDS011;58993;45.320;11.864;2022-08-19T07:27:13;3.30;;;1.00;;
69551;SDS011;58993;45.320;11.864;2022-08-19T07:29:38;4.80;;;0.90;;
69551;SDS011;58993;45.320;11.864;2022-08-19T07:32:04;3.90;;;0.80;;
69551;SDS011;58993;45.320;11.864;2022-08-19T07:34:31;3.30;;;0.80;;
69551;SDS011;58993;45.320;11.864;2022-08-19T07:36:59;3.70;;;0.80;;
69551;SDS011;58993;45.320;11.864;2022-08-19T07:39:27;3.60;;;0.80;;
69551;SDS011;58993;45.320;11.864;2022-08-19T07:41:56;4.00;;;0.80;;
69551;SDS011;58993;45.320;11.864;2022-08-19T07:44:24;3.20;;;0.70;;
69551;SDS011;58993;45.320;11.864;2022-08-19T07:46:52;2.50;;;0.80;;
69551;SDS011;58993;45.320;11.864;2022-08-19T07:49:19;2.40;;;0.60;;
69551;SDS011;58993;45.320;11.864;2022-08-19T07:51:53;4.50;;;0.80;;
69551;SDS011;58993;45.320;11.864;2022-08-19T07:54:22;3.40;;;0.80;;
69551;SDS011;58993;45.320;11.864;2022-08-19T07:56:49;3.50;;;0.80;;
69551;SDS011;58993;45.320;11.864;2022-08-19T07:59:16;3.80;;;0.90;;
69551;SDS011;58993;45.320;11.864;2022-08-19T08:01:42;3.80;;;0.70;;
69551;SDS011;58993;45.320;11.864;2022-08-19T08:04:08;2.70;;;0.70;;
69551;SDS011;58993;45.320;11.864;2022-08-19T08:06:53;4.20;;;0.70;;
69551;SDS011;58993;45.320;11.864;2022-08-19T08:09:38;3.50;;;1.10;;
69551;SDS011;58993;45.320;11.864;2022-08-19T08:14:34;3.70;;;0.90;;
69551;SDS011;58993;45.320;11.864;2022-08-19T08:17:03;4.00;;;1.00;;
69551;SDS011;58993;45.320;11.864;2022-08-19T08:19:31;5.10;;;0.90;;
69551;SDS011;58993;45.320;11.864;2022-08-19T08:21:58;2.70;;;0.80;;
69551;SDS011;58993;45.320;11.864;2022-08-19T08:24:25;5.40;;;1.30;;
69551;SDS011;58993;45.320;11.864;2022-08-19T08:26:52;3.10;;;0.80;;
69551;SDS011;58993;45.320;11.864;2022-08-19T08:29:18;3.80;;;0.90;;
69551;SDS011;58993;45.320;11.864;2022-08-19T08:31:44;5.40;;;0.80;;
69551;SDS011;58993;45.320;11.864;2022-08-19T08:34:11;2.70;;;0.70;;
69551;SDS011;58993;45.320;11.864;2022-08-19T08:36:39;4.30;;;0.80;;
69551;SDS011;58993;45.320;11.864;2022-08-19T08:39:25;3.90;;;0.60;;
69551;SDS011;58993;45.320;11.864;2022-08-19T08:44:53;4.00;;;0.60;;
69551;SDS011;58993;45.320;11.864;2022-08-19T08:47:26;2.50;;;0.50;;
69551;SDS011;58993;45.320;11.864;2022-08-19T08:52:41;2.50;;;0.50;;
69551;SDS011;58993;45.320;11.864;2022-08-19T08:55:15;4.30;;;0.60;;
69551;SDS011;58993;45.320;11.864;2022-08-19T08:57:51;3.40;;;0.50;;
69551;SDS011;58993;45.320;11.864;2022-08-19T09:00:25;2.50;;;0.50;;
69551;SDS011;58993;45.320;11.864;2022-08-19T09:02:54;2.70;;;0.80;;
69551;SDS011;58993;45.320;11.864;2022-08-19T09:05:22;3.50;;;0.80;;
69551;SDS011;58993;45.320;11.864;2022-08-19T09:08:12;3.90;;;0.60;;
69551;SDS011;58993;45.320;11.864;2022-08-19T09:10:53;3.30;;;0.60;;
69551;SDS011;58993;45.320;11.864;2022-08-19T09:16:02;1.30;;;0.40;;
69551;SDS011;58993;45.320;11.864;2022-08-19T09:18:41;1.00;;;0.40;;
69551;SDS011;58993;45.320;11.864;2022-08-19T09:21:13;2.10;;;0.20;;
69551;SDS011;58993;45.320;11.864;2022-08-19T09:23:39;4.30;;;0.30;;
69551;SDS011;58993;45.320;11.864;2022-08-19T09:26:09;1.40;;;0.30;;
69551;SDS011;58993;45.320;11.864;2022-08-19T09:28:39;1.10;;;0.40;;
69551;SDS011;58993;45.320;11.864;2022-08-19T09:31:30;1.90;;;0.40;;
69551;SDS011;58993;45.320;11.864;2022-08-19T09:33:54;0.70;;;0.30;;
69551;SDS011;58993;45.320;11.864;2022-08-19T09:36:24;1.00;;;0.30;;
69551;SDS011;58993;45.320;11.864;2022-08-19T09:38:52;0.70;;;0.30;;
69551;SDS011;58993;45.320;11.864;2022-08-19T09:41:19;1.90;;;0.30;;
69551;SDS011;58993;45.320;11.864;2022-08-19T09:43:48;1.70;;;0.40;;
69551;SDS011;58993;45.320;11.864;2022-08-19T09:46:17;2.20;;;0.30;;
69551;SDS011;58993;45.320;11.864;2022-08-19T09:48:44;0.50;;;0.30;;
69551;SDS011;58993;45.320;11.864;2022-08-19T09:51:13;1.10;;;0.30;;
69551;SDS011;58993;45.320;11.864;2022-08-19T09:53:41;1.30;;;0.50;;
69551;SDS011;58993;45.320;11.864;2022-08-19T09:56:08;2.20;;;0.30;;
69551;SDS011;58993;45.320;11.864;2022-08-19T09:58:34;1.30;;;0.30;;
69551;SDS011;58993;45.320;11.864;2022-08-19T10:01:00;0.90;;;0.30;;
69551;SDS011;58993;45.320;11.864;2022-08-19T10:03:28;1.20;;;0.20;;
69551;SDS011;58993;45.320;11.864;2022-08-19T10:05:55;1.40;;;0.50;;
69551;SDS011;58993;45.320;11.864;2022-08-19T10:08:29;2.20;;;0.30;;
69551;SDS011;58993;45.320;11.864;2022-08-19T10:10:58;0.80;;;0.30;;
69551;SDS011;58993;45.320;11.864;2022-08-19T10:13:26;1.00;;;0.40;;
69551;SDS011;58993;45.320;11.864;2022-08-19T10:15:55;0.70;;;0.20;;
69551;SDS011;58993;45.320;11.864;2022-08-19T10:18:22;0.60;;;0.10;;
69551;SDS011;58993;45.320;11.864;2022-08-19T10:20:50;2.70;;;0.30;;
69551;SDS011;58993;45.320;11.864;2022-08-19T10:23:18;1.80;;;0.30;;
69551;SDS011;58993;45.320;11.864;2022-08-19T10:25:44;1.30;;;0.20;;
69551;SDS011;58993;45.320;11.864;2022-08-19T10:28:10;1.40;;;0.20;;
69551;SDS011;58993;45.320;11.864;2022-08-19T10:30:37;1.10;;;0.30;;
69551;SDS011;58993;45.320;11.864;2022-08-19T10:33:06;2.50;;;0.30;;
69551;SDS011;58993;45.320;11.864;2022-08-19T10:35:33;0.80;;;0.30;;
69551;SDS011;58993;45.320;11.864;2022-08-19T10:37:59;0.80;;;0.20;;
69551;SDS011;58993;45.320;11.864;2022-08-19T10:40:27;1.90;;;0.50;;
69551;SDS011;58993;45.320;11.864;2022-08-19T10:42:54;3.20;;;0.60;;
69551;SDS011;58993;45.320;11.864;2022-08-19T10:45:23;2.60;;;0.60;;
69551;SDS011;58993;45.320;11.864;2022-08-19T10:47:51;0.90;;;0.50;;
69551;SDS011;58993;45.320;11.864;2022-08-19T10:50:18;1.10;;;0.60;;
69551;SDS011;58993;45.320;11.864;2022-08-19T10:53:03;1.70;;;0.70;;
69551;SDS011;58993;45.320;11.864;2022-08-19T10:55:31;2.20;;;0.70;;
69551;SDS011;58993;45.320;11.864;2022-08-19T10:58:16;1.80;;;0.60;;
69551;SDS011;58993;45.320;11.864;2022-08-19T11:00:50;1.90;;;0.40;;
69551;SDS011;58993;45.320;11.864;2022-08-19T11:03:18;2.90;;;0.80;;
69551;SDS011;58993;45.320;11.864;2022-08-19T11:05:43;4.90;;;0.60;;
69551;SDS011;58993;45.320;11.864;2022-08-19T11:08:09;3.90;;;0.70;;
69551;SDS011;58993;45.320;11.864;2022-08-19T11:10:36;1.60;;;0.50;;
69551;SDS011;58993;45.320;11.864;2022-08-19T11:13:06;4.20;;;1.00;;
69551;SDS011;58993;45.320;11.864;2022-08-19T11:15:31;2.70;;;0.60;;
69551;SDS011;58993;45.320;11.864;2022-08-19T11:17:57;1.70;;;0.50;;
69551;SDS011;58993;45.320;11.864;2022-08-19T11:20:22;2.40;;;1.00;;
69551;SDS011;58993;45.320;11.864;2022-08-19T11:22:48;1.10;;;0.50;;
69551;SDS011;58993;45.320;11.864;2022-08-19T11:25:17;1.70;;;0.70;;
69551;SDS011;58993;45.320;11.864;2022-08-19T11:27:43;4.50;;;0.50;;
69551;SDS011;58993;45.320;11.864;2022-08-19T11:30:10;1.10;;;0.50;;
69551;SDS011;58993;45.320;11.864;2022-08-19T11:32:37;2.60;;;0.30;;
69551;SDS011;58993;45.320;11.864;2022-08-19T11:35:03;1.20;;;0.40;;
69551;SDS011;58993;45.320;11.864;2022-08-19T11:37:29;1.70;;;0.40;;
69551;SDS011;58993;45.320;11.864;2022-08-19T11:39:54;1.70;;;0.60;;
69551;SDS011;58993;45.320;11.864;2022-08-19T11:42:20;2.10;;;0.50;;
69551;SDS011;58993;45.320;11.864;2022-08-19T11:45:04;1.80;;;0.60;;
69551;SDS011;58993;45.320;11.864;2022-08-19T11:47:30;1.90;;;0.40;;
69551;SDS011;58993;45.320;11.864;2022-08-19T11:49:56;3.10;;;0.60;;
69551;SDS011;58993;45.320;11.864;2022-08-19T11:52:22;2.30;;;0.40;;
69551;SDS011;58993;45.320;11.864;2022-08-19T11:54:48;0.80;;;0.40;;
69551;SDS011;58993;45.320;11.864;2022-08-19T11:57:14;2.20;;;0.50;;
69551;SDS011;58993;45.320;11.864;2022-08-19T11:59:41;1.50;;;0.50;;
69551;SDS011;58993;45.320;11.864;2022-08-19T12:02:07;3.20;;;0.60;;
69551;SDS011;58993;45.320;11.864;2022-08-19T12:04:33;1.10;;;0.30;;
69551;SDS011;58993;45.320;11.864;2022-08-19T12:06:59;0.60;;;0.40;;
69551;SDS011;58993;45.320;11.864;2022-08-19T12:09:25;0.90;;;0.30;;
69551;SDS011;58993;45.320;11.864;2022-08-19T12:11:50;1.00;;;0.50;;
69551;SDS011;58993;45.320;11.864;2022-08-19T12:14:16;0.90;;;0.30;;
69551;SDS011;58993;45.320;11.864;2022-08-19T12:16:43;0.60;;;0.30;;
69551;SDS011;58993;45.320;11.864;2022-08-19T12:19:11;0.80;;;0.30;;
69551;SDS011;58993;45.320;11.864;2022-08-19T12:21:36;1.40;;;0.40;;
69551;SDS011;58993;45.320;11.864;2022-08-19T12:24:02;2.60;;;0.50;;
69551;SDS011;58993;45.320;11.864;2022-08-19T12:26:30;1.90;;;0.50;;
69551;SDS011;58993;45.320;11.864;2022-08-19T12:28:56;0.90;;;0.40;;
69551;SDS011;58993;45.320;11.864;2022-08-19T12:31:24;1.30;;;0.40;;
69551;SDS011;58993;45.320;11.864;2022-08-19T12:33:51;0.80;;;0.40;;
69551;SDS011;58993;45.320;11.864;2022-08-19T12:36:17;0.80;;;0.50;;
69551;SDS011;58993;45.320;11.864;2022-08-19T12:38:43;1.60;;;0.50;;
69551;SDS011;58993;45.320;11.864;2022-08-19T12:41:10;1.40;;;0.60;;
69551;SDS011;58993;45.320;11.864;2022-08-19T12:43:37;1.30;;;0.60;;
69551;SDS011;58993;45.320;11.864;2022-08-19T12:46:04;1.40;;;0.60;;
69551;SDS011;58993;45.320;11.864;2022-08-19T12:48:31;1.80;;;0.90;;
69551;SDS011;58993;45.320;11.864;2022-08-19T12:50:58;3.10;;;0.90;;
69551;SDS011;58993;45.320;11.864;2022-08-19T12:53:24;3.30;;;1.00;;
69551;SDS011;58993;45.320;11.864;2022-08-19T12:55:56;2.10;;;1.00;;
69551;SDS011;58993;45.320;11.864;2022-08-19T12:58:24;2.00;;;1.00;;
69551;SDS011;58993;45.320;11.864;2022-08-19T13:00:51;2.70;;;1.10;;
69551;SDS011;58993;45.320;11.864;2022-08-19T13:03:19;2.20;;;0.90;;
69551;SDS011;58993;45.320;11.864;2022-08-19T13:05:54;3.70;;;0.90;;
69551;SDS011;58993;45.320;11.864;2022-08-19T13:08:20;3.30;;;1.20;;
69551;SDS011;58993;45.320;11.864;2022-08-19T13:10:45;2.90;;;1.20;;
69551;SDS011;58993;45.320;11.864;2022-08-19T13:13:11;2.60;;;1.10;;
69551;SDS011;58993;45.320;11.864;2022-08-19T13:15:38;4.00;;;1.40;;
69551;SDS011;58993;45.320;11.864;2022-08-19T13:18:07;3.00;;;1.00;;
69551;SDS011;58993;45.320;11.864;2022-08-19T13:20:34;3.10;;;1.40;;
69551;SDS011;58993;45.320;11.864;2022-08-19T13:23:00;3.70;;;1.20;;
69551;SDS011;58993;45.320;11.864;2022-08-19T13:25:25;4.70;;;1.20;;
69551;SDS011;58993;45.320;11.864;2022-08-19T13:27:51;3.40;;;1.10;;
69551;SDS011;58993;45.320;11.864;2022-08-19T13:30:17;4.90;;;1.50;;
69551;SDS011;58993;45.320;11.864;2022-08-19T13:33:03;3.60;;;1.40;;
69551;SDS011;58993;45.320;11.864;2022-08-19T13:35:35;3.80;;;1.20;;
69551;SDS011;58993;45.320;11.864;2022-08-19T13:38:25;3.20;;;1.10;;
69551;SDS011;58993;45.320;11.864;2022-08-19T13:40:52;3.20;;;1.30;;
69551;SDS011;58993;45.320;11.864;2022-08-19T13:43:20;3.70;;;1.10;;
69551;SDS011;58993;45.320;11.864;2022-08-19T13:45:48;3.00;;;0.90;;
69551;SDS011;58993;45.320;11.864;2022-08-19T13:48:15;2.90;;;1.00;;
69551;SDS011;58993;45.320;11.864;2022-08-19T13:50:42;2.60;;;1.00;;
69551;SDS011;58993;45.320;11.864;2022-08-19T13:53:09;2.50;;;1.20;;
69551;SDS011;58993;45.320;11.864;2022-08-19T13:55:39;3.40;;;1.00;;
69551;SDS011;58993;45.320;11.864;2022-08-19T13:58:06;3.00;;;1.40;;
69551;SDS011;58993;45.320;11.864;2022-08-19T14:00:35;3.60;;;1.20;;
69551;SDS011;58993;45.320;11.864;2022-08-19T14:03:03;7.40;;;1.10;;
69551;SDS011;58993;45.320;11.864;2022-08-19T14:05:29;2.90;;;1.10;;
69551;SDS011;58993;45.320;11.864;2022-08-19T14:07:55;3.00;;;1.00;;
69551;SDS011;58993;45.320;11.864;2022-08-19T14:10:22;2.50;;;1.10;;
69551;SDS011;58993;45.320;11.864;2022-08-19T14:12:49;2.20;;;1.10;;
69551;SDS011;58993;45.320;11.864;2022-08-19T14:15:17;5.10;;;1.00;;
69551;SDS011;58993;45.320;11.864;2022-08-19T14:17:44;2.70;;;1.00;;
69551;SDS011;58993;45.320;11.864;2022-08-19T14:20:12;2.00;;;1.30;;
69551;SDS011;58993;45.320;11.864;2022-08-19T14:22:39;4.80;;;1.30;;
69551;SDS011;58993;45.320;11.864;2022-08-19T14:25:06;2.20;;;1.10;;
69551;SDS011;58993;45.320;11.864;2022-08-19T14:27:37;4.20;;;1.00;;
69551;SDS011;58993;45.320;11.864;2022-08-19T14:30:04;4.20;;;1.00;;
69551;SDS011;58993;45.320;11.864;2022-08-19T14:32:31;3.70;;;1.20;;
69551;SDS011;58993;45.320;11.864;2022-08-19T14:34:57;3.80;;;0.90;;
69551;SDS011;58993;45.320;11.864;2022-08-19T14:37:23;2.70;;;1.40;;
69551;SDS011;58993;45.320;11.864;2022-08-19T14:39:48;2.70;;;0.90;;
69551;SDS011;58993;45.320;11.864;2022-08-19T14:42:14;1.80;;;0.90;;
69551;SDS011;58993;45.320;11.864;2022-08-19T14:44:40;2.80;;;1.00;;
69551;SDS011;58993;45.320;11.864;2022-08-19T14:47:06;2.80;;;1.10;;
69551;SDS011;58993;45.320;11.864;2022-08-19T14:49:32;1.70;;;0.90;;
69551;SDS011;58993;45.320;11.864;2022-08-19T14:51:58;4.30;;;1.20;;